Time;durP1;ratioP1;P1;durP2;ratioP2;P2;SDS_P1;SDS_P2;PMS_P1;PMS_P2;Temp;Humidity;BMP_temperature;BMP_pressure;BME280_temperature;BME280_humidity;BME280_pressure;Samples;Min_cycle;Max_cycle;Signal;HPM_P1;HPM_P2
2021/03/30 00:00:54;;;;;;;5.53;3.10;;;;;;;;;;5050261;28;20621;-47
2021/03/30 00:03:19;;;;;;;4.23;3.03;;;;;;;;;;5076595;28;20180;-47
2021/03/30 00:05:45;;;;;;;8.20;3.17;;;;;;;;;;5080868;28;20181;-48
2021/03/30 00:08:10;;;;;;;7.37;3.20;;;;;;;;;;5081908;28;20184;-47
2021/03/30 00:10:41;;;;;;;4.50;3.40;;;;;;;;;;5082465;28;20584;-47
2021/03/30 00:13:08;;;;;;;7.47;3.53;;;;;;;;;;5064839;28;20181;-46
2021/03/30 00:15:33;;;;;;;7.60;3.33;;;;;;;;;;5079755;28;20196;-50
2021/03/30 00:17:58;;;;;;;6.87;3.50;;;;;;;;;;5085195;28;20286;-48
2021/03/30 00:20:25;;;;;;;10.07;3.10;;;;;;;;;;5083221;28;20188;-48
2021/03/30 00:22:50;;;;;;;6.37;3.30;;;;;;;;;;5079817;28;20573;-48
2021/03/30 00:25:15;;;;;;;4.10;3.07;;;;;;;;;;5080540;28;20189;-48
2021/03/30 00:27:41;;;;;;;4.30;3.30;;;;;;;;;;5077890;28;20200;-47
2021/03/30 00:30:09;;;;;;;4.57;3.37;;;;;;;;;;5075600;28;20180;-47
2021/03/30 00:32:35;;;;;;;6.83;3.80;;;;;;;;;;5077409;28;20578;-47
2021/03/30 00:35:00;;;;;;;5.93;3.40;;;;;;;;;;5083095;28;20201;-48
2021/03/30 00:37:25;;;;;;;5.07;3.30;;;;;;;;;;5073763;28;20193;-46
2021/03/30 00:39:50;;;;;;;7.80;3.40;;;;;;;;;;5081255;28;20197;-49
2021/03/30 00:42:21;;;;;;;5.47;3.73;;;;;;;;;;5081606;28;20223;-48
2021/03/30 00:44:46;;;;;;;4.70;3.57;;;;;;;;;;5081142;28;20262;-50
2021/03/30 00:47:15;;;;;;;9.07;3.70;;;;;;;;;;5083927;28;20185;-47
2021/03/30 00:49:40;;;;;;;4.20;3.70;;;;;;;;;;5083204;28;20246;-49
2021/03/30 00:52:06;;;;;;;7.90;3.73;;;;;;;;;;5083686;28;20608;-46
2021/03/30 00:54:33;;;;;;;7.17;3.37;;;;;;;;;;5065436;28;20216;-47
2021/03/30 00:56:58;;;;;;;7.67;4.23;;;;;;;;;;5079144;28;20192;-47
2021/03/30 00:59:24;;;;;;;5.60;4.00;;;;;;;;;;5080701;28;20195;-48
2021/03/30 01:01:49;;;;;;;6.03;3.80;;;;;;;;;;5075850;28;20215;-47
2021/03/30 01:04:15;;;;;;;6.43;3.00;;;;;;;;;;5081216;28;20197;-48
2021/03/30 01:06:40;;;;;;;11.87;4.13;;;;;;;;;;5079542;28;20221;-48
2021/03/30 01:09:30;;;;;;;5.63;3.07;;;;;;;;;;5082846;28;20235;-47
2021/03/30 01:11:59;;;;;;;6.80;2.63;;;;;;;;;;5079718;28;20208;-48
2021/03/30 01:14:43;;;;;;;10.67;4.03;;;;;;;;;;5075125;28;20219;-47
2021/03/30 01:17:35;;;;;;;6.73;3.17;;;;;;;;;;5080641;28;20254;-48
2021/03/30 01:20:25;;;;;;;6.80;3.80;;;;;;;;;;5069717;28;20185;-47
2021/03/30 01:23:05;;;;;;;5.60;2.40;;;;;;;;;;5075919;28;20246;-48
2021/03/30 01:25:34;;;;;;;9.20;4.23;;;;;;;;;;5076416;28;20708;-47
2021/03/30 01:28:04;;;;;;;5.23;3.47;;;;;;;;;;5073346;28;20270;-47
2021/03/30 01:30:33;;;;;;;5.40;2.47;;;;;;;;;;5071829;28;20196;-47
2021/03/30 01:33:02;;;;;;;5.73;3.97;;;;;;;;;;5080795;28;20196;-47
2021/03/30 01:35:28;;;;;;;10.47;3.90;;;;;;;;;;5055188;28;20209;-47
2021/03/30 01:37:56;;;;;;;10.53;4.27;;;;;;;;;;5064846;28;20211;-48
2021/03/30 01:40:26;;;;;;;7.10;3.97;;;;;;;;;;5081258;28;20265;-47
2021/03/30 01:42:53;;;;;;;6.57;3.17;;;;;;;;;;5080127;28;20189;-47
2021/03/30 01:45:21;;;;;;;5.80;4.23;;;;;;;;;;5073984;28;20811;-50
2021/03/30 01:47:49;;;;;;;6.40;4.23;;;;;;;;;;5072147;28;20187;-48
2021/03/30 01:50:15;;;;;;;6.33;3.67;;;;;;;;;;5076189;28;20645;-46
2021/03/30 01:52:41;;;;;;;5.60;4.10;;;;;;;;;;5076157;28;20189;-48
2021/03/30 01:55:08;;;;;;;5.13;4.20;;;;;;;;;;5065529;28;20228;-46
2021/03/30 01:57:36;;;;;;;6.73;4.17;;;;;;;;;;5077304;28;20203;-46
2021/03/30 02:00:06;;;;;;;7.13;3.73;;;;;;;;;;5073993;28;20195;-46
2021/03/30 02:02:31;;;;;;;9.23;4.33;;;;;;;;;;5072899;28;20205;-48
2021/03/30 02:04:57;;;;;;;5.67;4.00;;;;;;;;;;5067849;28;20605;-47
2021/03/30 02:07:24;;;;;;;8.43;3.77;;;;;;;;;;5064577;28;20545;-47
2021/03/30 02:09:55;;;;;;;6.57;4.27;;;;;;;;;;5077290;28;20242;-47
2021/03/30 02:12:23;;;;;;;6.37;3.90;;;;;;;;;;5080968;28;20204;-47
2021/03/30 02:14:48;;;;;;;5.93;4.10;;;;;;;;;;5076933;28;20215;-49
2021/03/30 02:17:26;;;;;;;6.73;3.90;;;;;;;;;;5072906;28;20276;-47
2021/03/30 02:20:04;;;;;;;5.27;4.30;;;;;;;;;;5076962;28;20188;-47
2021/03/30 02:22:32;;;;;;;5.50;4.23;;;;;;;;;;5063630;28;20216;-46
2021/03/30 02:24:59;;;;;;;6.03;4.10;;;;;;;;;;5083882;28;20185;-47
2021/03/30 02:27:27;;;;;;;6.73;4.33;;;;;;;;;;5077939;28;20620;-46
2021/03/30 02:29:55;;;;;;;5.40;3.97;;;;;;;;;;5088517;28;20192;-46
2021/03/30 02:32:23;;;;;;;10.00;5.30;;;;;;;;;;5064063;28;20683;-47
2021/03/30 02:34:51;;;;;;;8.07;4.87;;;;;;;;;;5077630;28;20205;-48
2021/03/30 02:37:18;;;;;;;7.40;4.27;;;;;;;;;;5054954;28;20234;-47
2021/03/30 02:39:44;;;;;;;15.77;5.30;;;;;;;;;;5081131;28;20220;-48
2021/03/30 02:42:10;;;;;;;10.73;4.90;;;;;;;;;;5065460;28;20811;-47
2021/03/30 02:44:38;;;;;;;7.27;4.73;;;;;;;;;;5076727;28;20185;-47
2021/03/30 02:47:03;;;;;;;8.57;5.00;;;;;;;;;;5082590;28;20190;-46
2021/03/30 02:49:29;;;;;;;8.70;5.07;;;;;;;;;;5089806;28;20181;-49
2021/03/30 02:51:57;;;;;;;7.17;4.23;;;;;;;;;;5084310;28;20219;-50
2021/03/30 02:54:23;;;;;;;6.47;4.57;;;;;;;;;;5069452;28;20214;-48
2021/03/30 02:56:48;;;;;;;7.07;4.37;;;;;;;;;;5073819;28;20199;-47
2021/03/30 02:59:17;;;;;;;6.67;4.97;;;;;;;;;;5089733;28;20260;-48
2021/03/30 03:01:43;;;;;;;11.90;5.30;;;;;;;;;;5059333;28;20200;-48
2021/03/30 03:04:09;;;;;;;9.63;4.57;;;;;;;;;;5081652;28;20212;-46
2021/03/30 03:06:35;;;;;;;7.67;4.00;;;;;;;;;;5063593;28;20312;-46
2021/03/30 03:09:01;;;;;;;8.17;4.47;;;;;;;;;;5077850;28;20199;-49
2021/03/30 03:11:28;;;;;;;7.57;4.83;;;;;;;;;;5080759;28;20248;-48
2021/03/30 03:13:56;;;;;;;7.80;4.33;;;;;;;;;;5054798;28;20205;-47
2021/03/30 03:16:22;;;;;;;7.47;5.20;;;;;;;;;;5056785;28;20273;-47
2021/03/30 03:18:48;;;;;;;7.37;4.97;;;;;;;;;;5082683;28;20186;-48
2021/03/30 03:21:16;;;;;;;7.67;4.77;;;;;;;;;;5086472;28;20212;-48
2021/03/30 03:23:42;;;;;;;8.80;4.73;;;;;;;;;;5079999;28;20200;-48
2021/03/30 03:26:10;;;;;;;12.07;4.70;;;;;;;;;;5078721;28;20214;-48
2021/03/30 03:28:44;;;;;;;7.53;4.57;;;;;;;;;;5080595;28;20196;-48
2021/03/30 03:31:13;;;;;;;6.20;4.37;;;;;;;;;;5076746;28;20233;-46
2021/03/30 03:33:39;;;;;;;5.93;4.27;;;;;;;;;;5064895;28;20197;-47
2021/03/30 03:36:10;;;;;;;7.53;4.77;;;;;;;;;;5085881;28;20199;-48
2021/03/30 03:38:37;;;;;;;9.40;4.63;;;;;;;;;;5082647;28;20227;-47
2021/03/30 03:41:04;;;;;;;8.37;5.43;;;;;;;;;;5076888;28;20205;-47
2021/03/30 03:43:29;;;;;;;10.60;4.43;;;;;;;;;;5078418;28;20189;-47
2021/03/30 03:45:55;;;;;;;6.67;3.90;;;;;;;;;;5080448;28;20545;-48
2021/03/30 03:48:20;;;;;;;11.13;3.90;;;;;;;;;;5084688;28;20193;-47
2021/03/30 03:50:46;;;;;;;8.33;4.87;;;;;;;;;;5082695;28;20287;-49
2021/03/30 03:53:15;;;;;;;10.70;4.83;;;;;;;;;;5062503;28;20185;-47
2021/03/30 03:55:47;;;;;;;6.73;4.07;;;;;;;;;;5076136;28;20207;-47
2021/03/30 03:58:15;;;;;;;7.07;4.73;;;;;;;;;;5074795;28;20657;-48
2021/03/30 04:00:41;;;;;;;16.63;4.97;;;;;;;;;;5081494;28;20567;-47
2021/03/30 04:03:27;;;;;;;7.73;4.73;;;;;;;;;;5084096;28;20184;-46
2021/03/30 04:06:11;;;;;;;9.47;4.87;;;;;;;;;;5079773;28;20188;-48
2021/03/30 04:08:42;;;;;;;7.87;5.07;;;;;;;;;;5053322;28;20188;-48
2021/03/30 04:11:08;;;;;;;7.57;5.00;;;;;;;;;;5082228;28;20213;-47
2021/03/30 04:13:39;;;;;;;8.80;4.73;;;;;;;;;;5080889;28;20594;-49
2021/03/30 04:16:06;;;;;;;10.00;5.50;;;;;;;;;;5083703;28;20657;-47
2021/03/30 04:18:33;;;;;;;8.13;5.40;;;;;;;;;;5081678;28;20185;-48
2021/03/30 04:21:03;;;;;;;7.77;5.17;;;;;;;;;;5061550;28;20765;-48
2021/03/30 04:23:29;;;;;;;9.83;5.50;;;;;;;;;;5064220;28;20676;-48
2021/03/30 04:25:57;;;;;;;6.73;5.37;;;;;;;;;;5080027;28;20200;-47
2021/03/30 04:28:24;;;;;;;8.07;5.20;;;;;;;;;;5079972;28;20205;-46
2021/03/30 04:30:50;;;;;;;7.27;5.43;;;;;;;;;;5073324;28;20227;-46
2021/03/30 04:33:15;;;;;;;8.40;5.57;;;;;;;;;;5081920;28;20190;-47
2021/03/30 04:35:40;;;;;;;8.10;6.23;;;;;;;;;;5085066;28;20212;-46
2021/03/30 04:38:06;;;;;;;11.73;5.00;;;;;;;;;;5077191;28;20193;-47
2021/03/30 04:40:31;;;;;;;10.57;5.40;;;;;;;;;;5075719;28;20223;-46
2021/03/30 04:42:57;;;;;;;8.33;5.07;;;;;;;;;;5058495;28;20247;-48
2021/03/30 04:45:22;;;;;;;11.77;6.27;;;;;;;;;;5085663;28;20191;-47
2021/03/30 04:47:50;;;;;;;10.23;5.30;;;;;;;;;;5067646;28;20195;-46
2021/03/30 04:50:17;;;;;;;13.93;6.10;;;;;;;;;;5081611;28;20184;-47
2021/03/30 04:52:42;;;;;;;14.67;5.27;;;;;;;;;;5074596;28;20188;-49
2021/03/30 04:55:08;;;;;;;11.03;4.97;;;;;;;;;;5087243;28;20213;-47
2021/03/30 04:57:34;;;;;;;8.17;5.73;;;;;;;;;;5078276;28;20188;-46
2021/03/30 04:59:59;;;;;;;8.43;5.53;;;;;;;;;;5080248;28;20250;-46
2021/03/30 05:02:24;;;;;;;12.07;5.87;;;;;;;;;;5080340;28;20209;-48
2021/03/30 05:04:50;;;;;;;8.37;5.43;;;;;;;;;;5069834;28;20192;-47
2021/03/30 05:07:16;;;;;;;8.10;4.87;;;;;;;;;;5075605;28;20219;-48
2021/03/30 05:09:41;;;;;;;10.07;5.37;;;;;;;;;;5060795;28;20197;-47
2021/03/30 05:12:07;;;;;;;7.50;4.57;;;;;;;;;;5082547;28;20204;-48
2021/03/30 05:14:32;;;;;;;7.80;5.00;;;;;;;;;;5064222;28;20677;-47
2021/03/30 05:16:57;;;;;;;8.33;5.20;;;;;;;;;;5082608;28;20223;-49
2021/03/30 05:19:23;;;;;;;5.10;3.63;;;;;;;;;;5073156;28;20269;-47
2021/03/30 05:21:48;;;;;;;10.83;4.63;;;;;;;;;;5062058;28;20204;-47
2021/03/30 05:24:13;;;;;;;2.93;2.13;;;;;;;;;;5083677;28;20182;-46
2021/03/30 05:26:38;;;;;;;8.50;4.97;;;;;;;;;;5074540;28;20231;-46
2021/03/30 05:29:04;;;;;;;7.13;3.57;;;;;;;;;;5063910;28;20196;-46
2021/03/30 05:31:30;;;;;;;8.17;4.43;;;;;;;;;;5069685;28;20205;-47
2021/03/30 05:33:55;;;;;;;7.20;5.13;;;;;;;;;;5060532;28;20689;-47
2021/03/30 05:36:20;;;;;;;13.43;6.73;;;;;;;;;;5082900;28;20278;-47
2021/03/30 05:38:46;;;;;;;10.23;6.83;;;;;;;;;;5075345;28;20189;-46
2021/03/30 05:41:11;;;;;;;9.47;6.33;;;;;;;;;;5078852;28;20236;-46
2021/03/30 05:43:37;;;;;;;7.67;4.00;;;;;;;;;;5078460;28;20193;-47
2021/03/30 05:46:03;;;;;;;10.33;5.20;;;;;;;;;;5078670;28;20181;-46
2021/03/30 05:48:30;;;;;;;10.80;3.50;;;;;;;;;;5079970;28;20216;-48
2021/03/30 05:50:56;;;;;;;7.63;4.37;;;;;;;;;;5082064;28;20215;-47
2021/03/30 05:53:24;;;;;;;9.53;5.70;;;;;;;;;;5078535;28;20198;-47
2021/03/30 05:55:54;;;;;;;8.13;4.03;;;;;;;;;;5059108;28;20715;-47
2021/03/30 05:58:20;;;;;;;13.07;6.10;;;;;;;;;;5075494;28;20613;-48
2021/03/30 06:00:46;;;;;;;7.80;5.30;;;;;;;;;;5073490;28;20567;-48
2021/03/30 06:03:22;;;;;;;11.13;6.80;;;;;;;;;;5067260;28;20217;-47
2021/03/30 06:05:54;;;;;;;11.37;6.77;;;;;;;;;;5074476;28;20184;-47
2021/03/30 06:08:23;;;;;;;11.40;6.90;;;;;;;;;;5069807;28;20184;-48
2021/03/30 06:10:52;;;;;;;12.30;7.63;;;;;;;;;;5073578;28;20339;-48
2021/03/30 06:13:56;;;;;;;14.23;7.93;;;;;;;;;;5069135;28;20192;-47
2021/03/30 06:16:37;;;;;;;11.13;6.60;;;;;;;;;;5070891;28;20728;-49
2021/03/30 06:19:05;;;;;;;11.90;6.33;;;;;;;;;;5067914;28;20199;-46
2021/03/30 06:21:31;;;;;;;10.90;6.23;;;;;;;;;;5071105;28;20253;-48
2021/03/30 06:23:59;;;;;;;10.00;6.40;;;;;;;;;;5071450;28;20714;-47
2021/03/30 06:26:27;;;;;;;9.00;7.17;;;;;;;;;;5056377;28;20250;-48
2021/03/30 06:28:53;;;;;;;11.37;7.23;;;;;;;;;;5069551;28;20200;-48
2021/03/30 06:31:21;;;;;;;12.60;7.13;;;;;;;;;;5069541;28;20313;-49
2021/03/30 06:33:59;;;;;;;12.45;7.63;;;;;;;;;;5070982;28;20193;-49
2021/03/30 06:36:30;;;;;;;10.52;7.10;;;;;;;;;;5053253;28;20570;-49
2021/03/30 06:39:05;;;;;;;10.15;8.07;;;;;;;;;;5069782;28;20185;-50
2021/03/30 06:46:55;;;;;;;9.50;8.07;;;;;;;;;;5068763;28;20548;-49
2021/03/30 06:49:22;;;;;;;12.20;8.25;;;;;;;;;;5070598;28;20197;-50
2021/03/30 06:51:48;;;;;;;10.98;9.23;;;;;;;;;;5069462;28;20205;-48
2021/03/30 06:54:14;;;;;;;10.10;8.48;;;;;;;;;;5072939;28;20212;-50
2021/03/30 06:56:57;;;;;;;9.93;8.85;;;;;;;;;;5072448;28;20192;-49
2021/03/30 06:59:23;;;;;;;12.02;9.63;;;;;;;;;;5075913;28;20691;-50
2021/03/30 07:01:56;;;;;;;11.43;10.23;;;;;;;;;;5088094;28;20578;-50
2021/03/30 07:04:22;;;;;;;11.05;9.88;;;;;;;;;;5084900;28;20187;-49
2021/03/30 07:06:56;;;;;;;14.70;10.15;;;;;;;;;;5083629;28;20180;-48
2021/03/30 07:09:22;;;;;;;13.20;9.95;;;;;;;;;;5075337;28;20278;-50
2021/03/30 07:11:48;;;;;;;13.07;11.20;;;;;;;;;;5107260;22;20309;-54
2021/03/30 07:14:14;;;;;;;11.27;10.18;;;;;;;;;;5084394;28;20245;-53
2021/03/30 07:16:48;;;;;;;14.45;11.07;;;;;;;;;;5079145;28;20189;-53
2021/03/30 07:19:15;;;;;;;12.25;11.07;;;;;;;;;;5087881;28;20185;-51
2021/03/30 07:21:49;;;;;;;14.05;11.18;;;;;;;;;;5083540;28;20204;-53
2021/03/30 07:24:22;;;;;;;15.45;12.52;;;;;;;;;;5086156;28;20651;-51
2021/03/30 07:26:52;;;;;;;17.20;13.50;;;;;;;;;;5086785;28;20279;-52
2021/03/30 07:29:29;;;;;;;15.02;13.20;;;;;;;;;;5082327;28;20272;-52
2021/03/30 07:32:08;;;;;;;18.27;13.65;;;;;;;;;;5084480;28;20242;-51
2021/03/30 07:34:57;;;;;;;15.80;13.27;;;;;;;;;;5086947;28;20200;-52
2021/03/30 07:38:02;;;;;;;17.05;14.35;;;;;;;;;;5086073;28;20200;-53
2021/03/30 07:40:27;;;;;;;17.65;13.52;;;;;;;;;;5082302;28;20204;-52
2021/03/30 07:42:54;;;;;;;16.90;14.30;;;;;;;;;;5081010;28;20188;-53
2021/03/30 07:45:31;;;;;;;17.50;13.65;;;;;;;;;;5086653;28;20681;-53
2021/03/30 07:47:58;;;;;;;16.42;14.68;;;;;;;;;;5088266;28;20177;-53
2021/03/30 07:50:44;;;;;;;19.33;15.00;;;;;;;;;;5086228;28;20587;-51
2021/03/30 07:53:41;;;;;;;18.00;14.38;;;;;;;;;;5087476;28;20191;-51
2021/03/30 07:56:10;;;;;;;18.60;13.45;;;;;;;;;;5065647;28;20234;-53
2021/03/30 07:58:41;;;;;;;20.52;13.85;;;;;;;;;;5079430;28;20197;-52
2021/03/30 08:01:07;;;;;;;18.83;13.68;;;;;;;;;;5089382;28;20247;-53
2021/03/30 08:03:34;;;;;;;19.48;13.77;;;;;;;;;;5076936;28;20193;-53
2021/03/30 08:06:10;;;;;;;18.23;14.10;;;;;;;;;;5083808;28;20185;-52
2021/03/30 08:09:00;;;;;;;18.17;13.98;;;;;;;;;;5083946;28;20188;-52
2021/03/30 08:11:37;;;;;;;19.42;13.88;;;;;;;;;;5068594;28;20227;-52
2021/03/30 08:14:03;;;;;;;16.52;13.00;;;;;;;;;;5089234;28;20208;-52
2021/03/30 08:16:29;;;;;;;16.20;12.85;;;;;;;;;;5083617;28;20257;-53
2021/03/30 08:18:54;;;;;;;18.20;13.95;;;;;;;;;;5084532;28;20189;-53
2021/03/30 08:21:20;;;;;;;19.30;13.50;;;;;;;;;;5086033;28;20209;-54
2021/03/30 08:23:52;;;;;;;16.75;12.02;;;;;;;;;;5081176;28;20185;-53
2021/03/30 08:26:18;;;;;;;16.88;12.48;;;;;;;;;;5077565;28;20217;-53
2021/03/30 08:29:02;;;;;;;18.02;12.73;;;;;;;;;;5074478;28;20676;-53
2021/03/30 08:31:30;;;;;;;18.90;12.95;;;;;;;;;;5078967;28;20236;-53
2021/03/30 08:34:01;;;;;;;16.38;12.27;;;;;;;;;;5080030;28;20177;-52
2021/03/30 08:36:33;;;;;;;21.40;12.07;;;;;;;;;;5083441;28;20188;-52
2021/03/30 08:39:02;;;;;;;16.10;12.25;;;;;;;;;;5081155;28;20187;-52
2021/03/30 08:41:42;;;;;;;18.13;12.38;;;;;;;;;;5083130;28;20208;-53
2021/03/30 08:44:38;;;;;;;17.90;12.27;;;;;;;;;;5084810;28;20216;-53
2021/03/30 08:47:04;;;;;;;18.30;12.57;;;;;;;;;;5085492;28;20554;-52
2021/03/30 08:49:39;;;;;;;17.75;11.98;;;;;;;;;;5087964;28;20222;-52
2021/03/30 08:52:10;;;;;;;16.42;12.45;;;;;;;;;;5082743;28;20269;-53
2021/03/30 08:54:47;;;;;;;17.88;11.93;;;;;;;;;;5086904;28;20240;-52
2021/03/30 08:57:13;;;;;;;16.73;11.00;;;;;;;;;;5085714;28;20184;-53
2021/03/30 08:59:39;;;;;;;16.15;10.25;;;;;;;;;;5084606;28;20185;-53
2021/03/30 09:02:09;;;;;;;15.57;11.10;;;;;;;;;;5087295;28;20205;-54
2021/03/30 09:04:40;;;;;;;16.98;11.73;;;;;;;;;;5075185;28;20579;-54
2021/03/30 09:07:07;;;;;;;19.33;11.65;;;;;;;;;;5085531;28;20245;-54
2021/03/30 09:09:34;;;;;;;15.57;11.30;;;;;;;;;;5082375;28;20263;-54
2021/03/30 09:12:01;;;;;;;16.63;11.05;;;;;;;;;;5069249;28;20212;-53
2021/03/30 09:14:27;;;;;;;15.18;10.40;;;;;;;;;;5084933;28;20197;-54
2021/03/30 09:16:52;;;;;;;19.75;9.82;;;;;;;;;;5080025;28;20195;-53
2021/03/30 09:19:18;;;;;;;14.98;9.57;;;;;;;;;;5085216;28;20200;-52
2021/03/30 09:21:50;;;;;;;14.57;11.35;;;;;;;;;;5079707;28;20230;-51
2021/03/30 09:24:27;;;;;;;14.63;10.15;;;;;;;;;;5080306;28;20185;-53
2021/03/30 09:26:52;;;;;;;18.85;10.73;;;;;;;;;;5080986;28;20687;-51
2021/03/30 09:29:18;;;;;;;15.98;10.65;;;;;;;;;;5085498;28;20185;-53
2021/03/30 09:31:46;;;;;;;17.52;11.40;;;;;;;;;;5086351;28;20239;-53
2021/03/30 09:34:12;;;;;;;17.05;9.10;;;;;;;;;;5066556;28;20197;-53
2021/03/30 09:36:45;;;;;;;15.80;10.23;;;;;;;;;;5085760;28;20644;-53
2021/03/30 09:39:20;;;;;;;17.05;10.68;;;;;;;;;;5084550;28;20249;-53
2021/03/30 09:41:48;;;;;;;17.90;10.80;;;;;;;;;;5077609;28;20207;-52
2021/03/30 09:44:13;;;;;;;15.52;11.13;;;;;;;;;;5079729;28;20174;-52
2021/03/30 09:46:39;;;;;;;21.63;12.00;;;;;;;;;;5070308;28;20195;-55
2021/03/30 09:49:08;;;;;;;19.10;10.57;;;;;;;;;;5085161;28;20188;-51
2021/03/30 09:51:36;;;;;;;17.38;10.43;;;;;;;;;;5085483;28;20313;-53
2021/03/30 09:54:16;;;;;;;13.75;10.20;;;;;;;;;;5086603;28;20208;-52
2021/03/30 09:56:41;;;;;;;19.58;11.80;;;;;;;;;;5085945;28;20656;-53
2021/03/30 09:59:08;;;;;;;18.05;11.20;;;;;;;;;;5083624;28;20184;-53
2021/03/30 10:01:34;;;;;;;18.60;10.77;;;;;;;;;;5083955;28;20213;-53
2021/03/30 10:03:59;;;;;;;17.17;10.20;;;;;;;;;;5087061;28;20277;-52
2021/03/30 10:06:28;;;;;;;16.88;10.65;;;;;;;;;;5069167;28;20231;-52
2021/03/30 10:09:03;;;;;;;13.50;9.98;;;;;;;;;;5080545;28;20180;-52
2021/03/30 10:11:30;;;;;;;16.73;10.05;;;;;;;;;;5085765;28;20210;-52
2021/03/30 10:13:55;;;;;;;16.67;10.63;;;;;;;;;;5083866;28;20184;-52
2021/03/30 10:16:21;;;;;;;21.80;11.50;;;;;;;;;;5085098;28;20336;-52
2021/03/30 10:18:46;;;;;;;16.80;10.10;;;;;;;;;;5084429;28;20276;-52
2021/03/30 10:21:17;;;;;;;16.38;10.38;;;;;;;;;;5083326;28;20199;-53
2021/03/30 10:23:49;;;;;;;17.45;10.85;;;;;;;;;;5085583;28;20188;-55
2021/03/30 10:26:19;;;;;;;18.63;10.43;;;;;;;;;;5085073;28;20187;-53
2021/03/30 10:29:03;;;;;;;23.40;10.10;;;;;;;;;;5082541;28;20189;-54
2021/03/30 10:31:45;;;;;;;14.88;9.82;;;;;;;;;;5079381;28;20207;-54
2021/03/30 10:34:21;;;;;;;18.42;10.25;;;;;;;;;;5075399;28;20283;-52
2021/03/30 10:36:48;;;;;;;16.90;9.60;;;;;;;;;;5073958;28;20211;-52
2021/03/30 10:39:14;;;;;;;15.88;9.80;;;;;;;;;;5089666;28;20691;-52
2021/03/30 10:41:42;;;;;;;14.88;10.15;;;;;;;;;;5089311;28;20204;-53
2021/03/30 10:44:09;;;;;;;19.35;10.13;;;;;;;;;;5090091;28;22211;-50
2021/03/30 10:46:45;;;;;;;17.58;10.63;;;;;;;;;;5087340;28;20271;-53
2021/03/30 10:49:12;;;;;;;17.00;10.63;;;;;;;;;;5079233;28;20619;-52
2021/03/30 10:51:41;;;;;;;13.98;9.25;;;;;;;;;;5086946;28;20208;-53
2021/03/30 10:54:10;;;;;;;18.42;10.63;;;;;;;;;;5085325;28;20209;-51
2021/03/30 10:56:35;;;;;;;17.50;10.40;;;;;;;;;;5086625;28;20195;-51
2021/03/30 10:59:07;;;;;;;20.35;10.85;;;;;;;;;;5087449;28;20181;-52
2021/03/30 11:01:33;;;;;;;16.63;11.13;;;;;;;;;;5087766;28;20728;-52
2021/03/30 11:03:58;;;;;;;17.35;10.45;;;;;;;;;;5088645;28;20193;-51
2021/03/30 11:06:23;;;;;;;15.35;10.05;;;;;;;;;;5088980;28;20188;-53
2021/03/30 11:08:48;;;;;;;15.38;11.07;;;;;;;;;;5086080;28;20261;-51
2021/03/30 11:11:14;;;;;;;18.45;11.57;;;;;;;;;;5090786;28;20265;-52
2021/03/30 11:13:39;;;;;;;19.30;11.05;;;;;;;;;;5087701;28;20208;-52
2021/03/30 11:16:05;;;;;;;17.35;11.73;;;;;;;;;;5085468;28;20208;-49
2021/03/30 11:18:30;;;;;;;17.40;11.63;;;;;;;;;;5087247;28;20184;-52
2021/03/30 11:20:56;;;;;;;22.27;12.07;;;;;;;;;;5073619;28;20257;-52
2021/03/30 11:23:22;;;;;;;19.00;11.55;;;;;;;;;;5087621;28;20200;-51
2021/03/30 11:25:47;;;;;;;18.73;12.05;;;;;;;;;;5088339;28;20759;-53
2021/03/30 11:28:13;;;;;;;18.30;11.30;;;;;;;;;;5091063;28;20223;-51
2021/03/30 11:30:47;;;;;;;21.83;12.30;;;;;;;;;;5087145;28;20208;-51
2021/03/30 11:33:19;;;;;;;19.25;12.20;;;;;;;;;;5087724;28;20196;-51
2021/03/30 11:38:14;;;;;;;21.38;11.38;;;;;;;;;;5083250;28;20637;-49
2021/03/30 11:40:40;;;;;;;16.25;11.10;;;;;;;;;;5065512;28;20201;-51
2021/03/30 11:43:07;;;;;;;19.83;11.77;;;;;;;;;;5082861;28;20184;-51
2021/03/30 11:45:32;;;;;;;20.65;12.20;;;;;;;;;;5084165;28;20203;-52
2021/03/30 11:47:58;;;;;;;18.77;10.48;;;;;;;;;;5084258;28;20645;-51
2021/03/30 11:50:24;;;;;;;17.73;10.90;;;;;;;;;;5083576;28;20209;-52
2021/03/30 11:52:49;;;;;;;16.20;10.27;;;;;;;;;;5082919;28;20591;-51
2021/03/30 11:55:15;;;;;;;18.30;10.15;;;;;;;;;;5087871;28;20266;-52
2021/03/30 11:57:43;;;;;;;14.40;9.90;;;;;;;;;;5066462;28;20184;-52
2021/03/30 12:00:09;;;;;;;15.93;10.98;;;;;;;;;;5084568;28;20284;-52
2021/03/30 12:02:34;;;;;;;16.98;10.98;;;;;;;;;;5083150;28;20193;-53
2021/03/30 12:04:59;;;;;;;16.02;11.20;;;;;;;;;;5085080;28;20185;-52
2021/03/30 12:07:25;;;;;;;20.58;11.43;;;;;;;;;;5083171;28;20281;-51
2021/03/30 12:09:50;;;;;;;18.00;11.20;;;;;;;;;;5084752;28;20852;-52
2021/03/30 12:12:16;;;;;;;16.25;10.60;;;;;;;;;;5085754;28;20200;-52
2021/03/30 12:14:41;;;;;;;18.23;11.02;;;;;;;;;;5081745;28;20226;-52
2021/03/30 12:17:06;;;;;;;16.83;11.18;;;;;;;;;;5082903;28;20750;-51
2021/03/30 12:19:31;;;;;;;17.85;11.02;;;;;;;;;;5071945;28;20204;-53
2021/03/30 12:21:57;;;;;;;18.33;11.00;;;;;;;;;;5085819;28;20236;-51
2021/03/30 12:24:22;;;;;;;19.25;11.73;;;;;;;;;;5082335;28;20231;-50
2021/03/30 12:26:48;;;;;;;16.70;10.55;;;;;;;;;;5083799;28;20527;-51
2021/03/30 12:29:13;;;;;;;22.33;11.93;;;;;;;;;;5088128;28;20180;-52
2021/03/30 12:31:38;;;;;;;17.98;10.35;;;;;;;;;;5082670;28;20291;-52
2021/03/30 12:34:04;;;;;;;16.25;10.75;;;;;;;;;;5081426;28;20184;-49
2021/03/30 12:36:30;;;;;;;18.60;11.10;;;;;;;;;;5085759;28;20204;-51
2021/03/30 12:38:56;;;;;;;15.70;11.13;;;;;;;;;;5067177;28;20211;-51
2021/03/30 12:41:22;;;;;;;16.35;10.73;;;;;;;;;;5080603;28;20765;-51
2021/03/30 12:43:47;;;;;;;16.33;9.40;;;;;;;;;;5085152;28;20201;-51
2021/03/30 12:46:12;;;;;;;17.25;11.52;;;;;;;;;;5083245;28;20246;-50
2021/03/30 12:48:38;;;;;;;15.57;10.18;;;;;;;;;;5083812;28;20263;-51
2021/03/30 12:51:04;;;;;;;15.55;9.57;;;;;;;;;;5087427;28;20296;-51
2021/03/30 12:53:30;;;;;;;17.63;10.80;;;;;;;;;;5086189;28;20187;-51
2021/03/30 12:55:55;;;;;;;16.92;12.05;;;;;;;;;;5084017;28;20205;-51
2021/03/30 12:58:21;;;;;;;22.50;11.32;;;;;;;;;;5084489;28;20184;-52
2021/03/30 13:00:46;;;;;;;17.65;11.07;;;;;;;;;;5080177;28;20857;-51
2021/03/30 13:03:12;;;;;;;15.35;9.70;;;;;;;;;;5082844;28;20188;-51
2021/03/30 13:05:37;;;;;;;16.73;10.57;;;;;;;;;;5080745;28;20173;-52
2021/03/30 13:08:02;;;;;;;16.25;9.75;;;;;;;;;;5081928;28;20233;-52
2021/03/30 13:10:27;;;;;;;14.38;9.57;;;;;;;;;;5086183;28;20216;-53
2021/03/30 13:12:53;;;;;;;17.20;10.13;;;;;;;;;;5104608;22;20224;-80
2021/03/30 13:15:18;;;;;;;16.17;9.98;;;;;;;;;;5085617;28;20563;-81
2021/03/30 13:17:46;;;;;;;14.57;9.75;;;;;;;;;;5073548;28;20307;-81
2021/03/30 13:20:11;;;;;;;15.13;10.07;;;;;;;;;;5088381;28;20230;-81
2021/03/30 13:22:37;;;;;;;16.65;10.38;;;;;;;;;;5086872;28;20192;-82
2021/03/30 13:25:03;;;;;;;16.25;8.95;;;;;;;;;;5086273;28;20177;-80
2021/03/30 13:27:29;;;;;;;14.07;9.38;;;;;;;;;;5086508;28;20600;-81
2021/03/30 13:29:55;;;;;;;13.38;8.68;;;;;;;;;;5088542;28;20184;-80
2021/03/30 13:32:22;;;;;;;18.90;9.35;;;;;;;;;;5089060;28;22172;-81
2021/03/30 13:34:48;;;;;;;13.32;7.78;;;;;;;;;;5084043;28;20211;-80
2021/03/30 13:37:20;;;;;;;15.77;7.25;;;;;;;;;;5085111;28;20210;-80
2021/03/30 13:39:45;;;;;;;12.25;7.45;;;;;;;;;;5083433;28;20189;-82
2021/03/30 13:42:12;;;;;;;10.95;6.75;;;;;;;;;;5066923;28;20176;-80
2021/03/30 13:44:38;;;;;;;12.93;7.20;;;;;;;;;;5083884;28;20733;-81
2021/03/30 13:47:05;;;;;;;12.50;7.20;;;;;;;;;;5073404;28;20197;-82
2021/03/30 13:49:34;;;;;;;11.15;7.60;;;;;;;;;;5098192;28;20226;-80
2021/03/30 13:52:00;;;;;;;12.55;7.28;;;;;;;;;;5094189;28;20257;-80
2021/03/30 13:54:27;;;;;;;11.57;7.00;;;;;;;;;;5085651;28;20680;-81
2021/03/30 13:56:53;;;;;;;16.67;7.93;;;;;;;;;;5084869;28;20647;-81
2021/03/30 13:59:18;;;;;;;13.88;7.40;;;;;;;;;;5090972;28;20593;-81
2021/03/30 14:01:44;;;;;;;15.60;7.50;;;;;;;;;;5087778;28;20192;-80
2021/03/30 14:04:09;;;;;;;11.30;7.25;;;;;;;;;;5087637;28;20597;-81
2021/03/30 14:06:35;;;;;;;15.65;7.65;;;;;;;;;;5083531;28;20257;-81
2021/03/30 14:09:01;;;;;;;13.68;7.80;;;;;;;;;;5087133;28;20215;-80
2021/03/30 14:11:33;;;;;;;11.00;7.40;;;;;;;;;;5087121;28;20250;-80
2021/03/30 14:14:11;;;;;;;10.25;7.18;;;;;;;;;;5069004;28;20185;-80
2021/03/30 14:16:45;;;;;;;13.02;7.85;;;;;;;;;;5086371;28;20183;-80
2021/03/30 14:19:15;;;;;;;14.57;8.50;;;;;;;;;;5089789;28;20230;-81
2021/03/30 14:21:45;;;;;;;13.68;7.13;;;;;;;;;;5084595;28;20616;-81
2021/03/30 14:24:32;;;;;;;10.63;6.93;;;;;;;;;;5090949;28;20653;-80
2021/03/30 14:26:57;;;;;;;10.85;6.97;;;;;;;;;;5090455;28;20237;-80
2021/03/30 14:29:22;;;;;;;8.80;6.53;;;;;;;;;;5091328;28;20212;-80
2021/03/30 14:31:47;;;;;;;10.10;6.80;;;;;;;;;;5083829;28;20287;-80
2021/03/30 14:34:18;;;;;;;13.00;7.85;;;;;;;;;;5086089;28;20835;-78
2021/03/30 14:36:43;;;;;;;11.75;6.90;;;;;;;;;;5087251;28;20208;-78
2021/03/30 14:39:10;;;;;;;14.85;7.43;;;;;;;;;;5085395;28;20240;-79
2021/03/30 14:41:47;;;;;;;11.95;6.80;;;;;;;;;;5084826;28;20184;-78
2021/03/30 14:52:54;;;;;;;11.77;7.25;;;;;;;;;;5085930;28;20263;-79